sensor_id;sensor_type;location;lat;lon;timestamp;temperature;humidity
12819;DHT22;6474;53.474;9.894;2023-09-08T00:00:02;19.40;74.40
12819;DHT22;6474;53.474;9.894;2023-09-08T00:02:31;19.40;74.50
12819;DHT22;6474;53.474;9.894;2023-09-08T00:05:02;19.30;74.40
12819;DHT22;6474;53.474;9.894;2023-09-08T00:07:30;19.30;74.40
12819;DHT22;6474;53.474;9.894;2023-09-08T00:09:58;19.20;74.30
12819;DHT22;6474;53.474;9.894;2023-09-08T00:12:27;19.20;74.30
12819;DHT22;6474;53.474;9.894;2023-09-08T00:14:55;19.20;74.40
12819;DHT22;6474;53.474;9.894;2023-09-08T00:17:23;19.30;74.50
12819;DHT22;6474;53.474;9.894;2023-09-08T00:19:53;19.20;74.50
12819;DHT22;6474;53.474;9.894;2023-09-08T00:22:23;19.20;74.50
12819;DHT22;6474;53.474;9.894;2023-09-08T00:24:52;19.10;74.40
12819;DHT22;6474;53.474;9.894;2023-09-08T00:27:20;19.20;74.60
12819;DHT22;6474;53.474;9.894;2023-09-08T00:29:48;19.20;74.60
12819;DHT22;6474;53.474;9.894;2023-09-08T00:32:16;19.10;74.50
12819;DHT22;6474;53.474;9.894;2023-09-08T00:34:45;19.10;74.50
12819;DHT22;6474;53.474;9.894;2023-09-08T00:37:13;19.10;74.60
12819;DHT22;6474;53.474;9.894;2023-09-08T00:39:42;19.10;74.60
12819;DHT22;6474;53.474;9.894;2023-09-08T00:42:10;19.10;74.60
12819;DHT22;6474;53.474;9.894;2023-09-08T00:44:38;19.10;74.60
12819;DHT22;6474;53.474;9.894;2023-09-08T00:47:06;19.10;74.60
12819;DHT22;6474;53.474;9.894;2023-09-08T00:49:38;19.10;74.60
12819;DHT22;6474;53.474;9.894;2023-09-08T00:52:06;19.10;74.60
12819;DHT22;6474;53.474;9.894;2023-09-08T00:54:34;19.10;74.60
12819;DHT22;6474;53.474;9.894;2023-09-08T00:57:04;19.00;74.60
12819;DHT22;6474;53.474;9.894;2023-09-08T00:59:35;19.00;74.60
12819;DHT22;6474;53.474;9.894;2023-09-08T01:02:03;19.00;74.60
12819;DHT22;6474;53.474;9.894;2023-09-08T01:04:31;19.00;74.60
12819;DHT22;6474;53.474;9.894;2023-09-08T01:07:00;19.00;74.60
12819;DHT22;6474;53.474;9.894;2023-09-08T01:09:30;19.00;74.60
12819;DHT22;6474;53.474;9.894;2023-09-08T01:11:58;19.00;74.60
12819;DHT22;6474;53.474;9.894;2023-09-08T01:14:30;18.90;74.50
12819;DHT22;6474;53.474;9.894;2023-09-08T01:16:59;18.90;74.50
12819;DHT22;6474;53.474;9.894;2023-09-08T01:19:27;18.90;74.50
12819;DHT22;6474;53.474;9.894;2023-09-08T01:22:17;18.90;74.50
12819;DHT22;6474;53.474;9.894;2023-09-08T01:25:09;18.90;74.50
12819;DHT22;6474;53.474;9.894;2023-09-08T01:27:45;18.90;74.50
12819;DHT22;6474;53.474;9.894;2023-09-08T01:30:14;18.90;74.50
12819;DHT22;6474;53.474;9.894;2023-09-08T01:32:44;18.90;74.50
12819;DHT22;6474;53.474;9.894;2023-09-08T01:35:13;18.90;74.50
12819;DHT22;6474;53.474;9.894;2023-09-08T01:37:44;18.80;74.30
12819;DHT22;6474;53.474;9.894;2023-09-08T01:40:14;18.80;74.40
12819;DHT22;6474;53.474;9.894;2023-09-08T01:42:42;18.80;74.40
12819;DHT22;6474;53.474;9.894;2023-09-08T01:45:10;18.70;74.30
12819;DHT22;6474;53.474;9.894;2023-09-08T01:47:38;18.70;74.20
12819;DHT22;6474;53.474;9.894;2023-09-08T01:50:06;18.70;74.30
12819;DHT22;6474;53.474;9.894;2023-09-08T01:52:34;18.60;74.20
12819;DHT22;6474;53.474;9.894;2023-09-08T01:55:03;18.50;74.20
12819;DHT22;6474;53.474;9.894;2023-09-08T01:57:32;18.50;74.30
12819;DHT22;6474;53.474;9.894;2023-09-08T02:00:04;18.40;74.40
12819;DHT22;6474;53.474;9.894;2023-09-08T02:02:33;18.30;74.50
12819;DHT22;6474;53.474;9.894;2023-09-08T02:05:01;18.30;74.60
12819;DHT22;6474;53.474;9.894;2023-09-08T02:07:29;18.20;74.50
12819;DHT22;6474;53.474;9.894;2023-09-08T02:09:58;18.10;74.50
12819;DHT22;6474;53.474;9.894;2023-09-08T02:12:26;18.10;74.60
12819;DHT22;6474;53.474;9.894;2023-09-08T02:14:55;18.00;74.60
12819;DHT22;6474;53.474;9.894;2023-09-08T02:17:23;18.00;74.70
12819;DHT22;6474;53.474;9.894;2023-09-08T02:19:51;17.90;74.80
12819;DHT22;6474;53.474;9.894;2023-09-08T02:22:19;17.80;74.80
12819;DHT22;6474;53.474;9.894;2023-09-08T02:24:47;17.80;75.00
12819;DHT22;6474;53.474;9.894;2023-09-08T02:27:16;17.70;74.90
12819;DHT22;6474;53.474;9.894;2023-09-08T02:29:44;17.60;74.90
12819;DHT22;6474;53.474;9.894;2023-09-08T02:32:15;17.60;74.80
12819;DHT22;6474;53.474;9.894;2023-09-08T02:34:43;17.60;74.80
12819;DHT22;6474;53.474;9.894;2023-09-08T02:37:11;17.50;74.80
12819;DHT22;6474;53.474;9.894;2023-09-08T02:39:40;17.50;74.90
12819;DHT22;6474;53.474;9.894;2023-09-08T02:42:08;17.40;74.90
12819;DHT22;6474;53.474;9.894;2023-09-08T02:44:36;17.40;75.00
12819;DHT22;6474;53.474;9.894;2023-09-08T02:47:05;17.40;75.00
12819;DHT22;6474;53.474;9.894;2023-09-08T02:49:35;17.30;75.10
12819;DHT22;6474;53.474;9.894;2023-09-08T02:52:03;17.30;75.00
12819;DHT22;6474;53.474;9.894;2023-09-08T02:54:31;17.20;75.00
12819;DHT22;6474;53.474;9.894;2023-09-08T02:56:59;17.20;75.00
12819;DHT22;6474;53.474;9.894;2023-09-08T02:59:27;17.20;75.00
12819;DHT22;6474;53.474;9.894;2023-09-08T03:01:55;17.10;74.90
12819;DHT22;6474;53.474;9.894;2023-09-08T03:04:23;17.10;75.00
12819;DHT22;6474;53.474;9.894;2023-09-08T03:06:52;17.10;75.00
12819;DHT22;6474;53.474;9.894;2023-09-08T03:09:20;17.10;75.00
12819;DHT22;6474;53.474;9.894;2023-09-08T03:11:48;17.00;74.90
12819;DHT22;6474;53.474;9.894;2023-09-08T03:14:16;17.00;74.90
12819;DHT22;6474;53.474;9.894;2023-09-08T03:16:44;17.00;74.90
12819;DHT22;6474;53.474;9.894;2023-09-08T03:19:12;17.00;75.00
12819;DHT22;6474;53.474;9.894;2023-09-08T03:21:40;17.00;74.90
12819;DHT22;6474;53.474;9.894;2023-09-08T03:24:09;16.90;74.90
12819;DHT22;6474;53.474;9.894;2023-09-08T03:26:37;16.90;74.90
12819;DHT22;6474;53.474;9.894;2023-09-08T03:29:07;16.90;74.90
12819;DHT22;6474;53.474;9.894;2023-09-08T03:31:35;16.90;74.90
12819;DHT22;6474;53.474;9.894;2023-09-08T03:34:03;16.90;75.60
12819;DHT22;6474;53.474;9.894;2023-09-08T03:36:31;16.90;74.90
12819;DHT22;6474;53.474;9.894;2023-09-08T03:39:02;16.90;74.90
12819;DHT22;6474;53.474;9.894;2023-09-08T03:41:32;16.90;74.90
12819;DHT22;6474;53.474;9.894;2023-09-08T03:43:59;16.80;74.80
12819;DHT22;6474;53.474;9.894;2023-09-08T03:46:27;16.80;74.90
12819;DHT22;6474;53.474;9.894;2023-09-08T03:48:55;16.80;74.90
12819;DHT22;6474;53.474;9.894;2023-09-08T03:51:27;16.80;75.00
12819;DHT22;6474;53.474;9.894;2023-09-08T03:53:55;16.70;74.90
12819;DHT22;6474;53.474;9.894;2023-09-08T03:56:23;16.80;75.00
12819;DHT22;6474;53.474;9.894;2023-09-08T03:58:53;16.70;75.00
12819;DHT22;6474;53.474;9.894;2023-09-08T04:01:21;16.70;75.10
12819;DHT22;6474;53.474;9.894;2023-09-08T04:03:49;16.80;75.20
12819;DHT22;6474;53.474;9.894;2023-09-08T04:06:17;16.90;75.20
12819;DHT22;6474;53.474;9.894;2023-09-08T04:08:44;16.80;75.00
12819;DHT22;6474;53.474;9.894;2023-09-08T04:11:12;16.90;75.10
12819;DHT22;6474;53.474;9.894;2023-09-08T04:13:40;16.90;75.00
12819;DHT22;6474;53.474;9.894;2023-09-08T04:16:09;17.00;75.00
12819;DHT22;6474;53.474;9.894;2023-09-08T04:18:37;17.00;75.00
12819;DHT22;6474;53.474;9.894;2023-09-08T04:21:06;17.00;74.90
12819;DHT22;6474;53.474;9.894;2023-09-08T04:23:34;17.00;74.90
12819;DHT22;6474;53.474;9.894;2023-09-08T04:26:03;17.10;74.90
12819;DHT22;6474;53.474;9.894;2023-09-08T04:28:31;17.10;74.90
12819;DHT22;6474;53.474;9.894;2023-09-08T04:30:59;17.10;74.90
12819;DHT22;6474;53.474;9.894;2023-09-08T04:33:29;17.10;74.80
12819;DHT22;6474;53.474;9.894;2023-09-08T04:35:57;17.10;74.90
12819;DHT22;6474;53.474;9.894;2023-09-08T04:38:25;17.10;74.90
12819;DHT22;6474;53.474;9.894;2023-09-08T04:40:53;17.10;74.90
12819;DHT22;6474;53.474;9.894;2023-09-08T04:43:21;17.10;74.90
12819;DHT22;6474;53.474;9.894;2023-09-08T04:45:49;17.10;74.80
12819;DHT22;6474;53.474;9.894;2023-09-08T04:48:17;17.10;74.80
12819;DHT22;6474;53.474;9.894;2023-09-08T04:50:46;17.10;74.80
12819;DHT22;6474;53.474;9.894;2023-09-08T04:53:14;17.20;75.00
12819;DHT22;6474;53.474;9.894;2023-09-08T04:55:43;17.20;75.00
12819;DHT22;6474;53.474;9.894;2023-09-08T04:58:10;17.10;74.90
12819;DHT22;6474;53.474;9.894;2023-09-08T05:00:38;17.20;74.90
12819;DHT22;6474;53.474;9.894;2023-09-08T05:03:06;17.20;74.90
12819;DHT22;6474;53.474;9.894;2023-09-08T05:05:34;17.30;75.00
12819;DHT22;6474;53.474;9.894;2023-09-08T05:08:04;17.30;75.00
12819;DHT22;6474;53.474;9.894;2023-09-08T05:10:32;17.30;75.70
12819;DHT22;6474;53.474;9.894;2023-09-08T05:13:00;17.30;74.90
12819;DHT22;6474;53.474;9.894;2023-09-08T05:15:27;17.30;74.90
12819;DHT22;6474;53.474;9.894;2023-09-08T05:18:00;17.30;74.90
12819;DHT22;6474;53.474;9.894;2023-09-08T05:20:28;17.30;74.90
12819;DHT22;6474;53.474;9.894;2023-09-08T05:22:56;17.30;74.90
12819;DHT22;6474;53.474;9.894;2023-09-08T05:25:25;17.40;75.00
12819;DHT22;6474;53.474;9.894;2023-09-08T05:27:53;17.40;75.00
12819;DHT22;6474;53.474;9.894;2023-09-08T05:30:21;17.30;74.90
12819;DHT22;6474;53.474;9.894;2023-09-08T05:32:49;17.30;74.90
12819;DHT22;6474;53.474;9.894;2023-09-08T05:35:17;17.40;75.00
12819;DHT22;6474;53.474;9.894;2023-09-08T05:37:45;17.40;74.90
12819;DHT22;6474;53.474;9.894;2023-09-08T05:40:13;17.40;74.90
12819;DHT22;6474;53.474;9.894;2023-09-08T05:42:42;17.40;74.90
12819;DHT22;6474;53.474;9.894;2023-09-08T05:45:11;17.40;74.80
12819;DHT22;6474;53.474;9.894;2023-09-08T05:47:39;17.40;74.80
12819;DHT22;6474;53.474;9.894;2023-09-08T05:50:07;17.50;74.90
12819;DHT22;6474;53.474;9.894;2023-09-08T05:52:35;17.50;75.00
12819;DHT22;6474;53.474;9.894;2023-09-08T05:55:04;17.50;74.90
12819;DHT22;6474;53.474;9.894;2023-09-08T05:57:31;17.50;74.90
12819;DHT22;6474;53.474;9.894;2023-09-08T06:00:03;17.50;75.50
12819;DHT22;6474;53.474;9.894;2023-09-08T06:02:32;17.60;74.90
12819;DHT22;6474;53.474;9.894;2023-09-08T06:05:00;17.60;74.90
12819;DHT22;6474;53.474;9.894;2023-09-08T06:07:28;17.60;74.80
12819;DHT22;6474;53.474;9.894;2023-09-08T06:09:56;17.70;74.90
12819;DHT22;6474;53.474;9.894;2023-09-08T06:12:24;17.80;75.00
12819;DHT22;6474;53.474;9.894;2023-09-08T06:14:52;17.90;75.70
12819;DHT22;6474;53.474;9.894;2023-09-08T06:17:21;17.90;74.80
12819;DHT22;6474;53.474;9.894;2023-09-08T06:19:49;18.00;74.70
12819;DHT22;6474;53.474;9.894;2023-09-08T06:22:17;18.10;74.60
12819;DHT22;6474;53.474;9.894;2023-09-08T06:24:45;18.20;74.60
12819;DHT22;6474;53.474;9.894;2023-09-08T06:27:14;18.20;74.50
12819;DHT22;6474;53.474;9.894;2023-09-08T06:29:42;18.30;74.40
12819;DHT22;6474;53.474;9.894;2023-09-08T06:32:13;18.40;74.40
12819;DHT22;6474;53.474;9.894;2023-09-08T06:34:42;18.40;75.00
12819;DHT22;6474;53.474;9.894;2023-09-08T06:37:10;18.50;74.10
12819;DHT22;6474;53.474;9.894;2023-09-08T06:39:38;18.50;74.10
12819;DHT22;6474;53.474;9.894;2023-09-08T06:42:07;18.60;74.90
12819;DHT22;6474;53.474;9.894;2023-09-08T06:44:35;18.70;74.20
12819;DHT22;6474;53.474;9.894;2023-09-08T06:47:03;18.70;74.20
12819;DHT22;6474;53.474;9.894;2023-09-08T06:49:33;18.80;74.30
12819;DHT22;6474;53.474;9.894;2023-09-08T06:52:03;18.80;74.20
12819;DHT22;6474;53.474;9.894;2023-09-08T06:54:31;18.90;74.30
12819;DHT22;6474;53.474;9.894;2023-09-08T06:56:59;18.90;74.20
12819;DHT22;6474;53.474;9.894;2023-09-08T06:59:27;19.00;74.30
12819;DHT22;6474;53.474;9.894;2023-09-08T07:01:55;19.00;74.20
12819;DHT22;6474;53.474;9.894;2023-09-08T07:04:23;19.10;74.20
12819;DHT22;6474;53.474;9.894;2023-09-08T07:06:51;19.20;74.30
12819;DHT22;6474;53.474;9.894;2023-09-08T07:09:23;19.20;74.20
12819;DHT22;6474;53.474;9.894;2023-09-08T07:11:50;19.20;74.10
12819;DHT22;6474;53.474;9.894;2023-09-08T07:14:18;19.30;74.10
12819;DHT22;6474;53.474;9.894;2023-09-08T07:16:46;19.30;74.10
12819;DHT22;6474;53.474;9.894;2023-09-08T07:19:14;19.40;74.20
12819;DHT22;6474;53.474;9.894;2023-09-08T07:21:42;19.40;74.10
12819;DHT22;6474;53.474;9.894;2023-09-08T07:24:10;19.50;74.20
12819;DHT22;6474;53.474;9.894;2023-09-08T07:26:40;19.50;74.10
12819;DHT22;6474;53.474;9.894;2023-09-08T07:29:08;19.60;74.20
12819;DHT22;6474;53.474;9.894;2023-09-08T07:31:36;19.60;74.10
12819;DHT22;6474;53.474;9.894;2023-09-08T07:34:05;19.70;74.20
12819;DHT22;6474;53.474;9.894;2023-09-08T07:36:35;19.70;74.10
12819;DHT22;6474;53.474;9.894;2023-09-08T07:39:03;19.80;74.20
12819;DHT22;6474;53.474;9.894;2023-09-08T07:41:31;19.80;74.10
12819;DHT22;6474;53.474;9.894;2023-09-08T07:44:00;19.80;74.10
12819;DHT22;6474;53.474;9.894;2023-09-08T07:46:29;19.90;74.20
12819;DHT22;6474;53.474;9.894;2023-09-08T07:48:58;20.00;74.20
12819;DHT22;6474;53.474;9.894;2023-09-08T07:51:27;20.00;74.20
12819;DHT22;6474;53.474;9.894;2023-09-08T07:53:54;20.10;74.20
12819;DHT22;6474;53.474;9.894;2023-09-08T07:56:23;20.10;74.20
12819;DHT22;6474;53.474;9.894;2023-09-08T07:58:51;20.20;74.20
12819;DHT22;6474;53.474;9.894;2023-09-08T08:01:20;20.20;74.10
12819;DHT22;6474;53.474;9.894;2023-09-08T08:03:48;20.30;74.20
12819;DHT22;6474;53.474;9.894;2023-09-08T08:06:16;20.30;74.10
12819;DHT22;6474;53.474;9.894;2023-09-08T08:08:44;20.40;74.20
12819;DHT22;6474;53.474;9.894;2023-09-08T08:11:13;20.40;74.20
12819;DHT22;6474;53.474;9.894;2023-09-08T08:13:41;20.40;74.20
12819;DHT22;6474;53.474;9.894;2023-09-08T08:16:09;20.50;74.20
12819;DHT22;6474;53.474;9.894;2023-09-08T08:18:39;20.60;74.30
12819;DHT22;6474;53.474;9.894;2023-09-08T08:21:07;20.60;74.20
12819;DHT22;6474;53.474;9.894;2023-09-08T08:23:35;20.70;74.30
12819;DHT22;6474;53.474;9.894;2023-09-08T08:26:05;20.70;74.20
12819;DHT22;6474;53.474;9.894;2023-09-08T08:28:33;20.80;74.30
12819;DHT22;6474;53.474;9.894;2023-09-08T08:31:02;20.90;74.40
12819;DHT22;6474;53.474;9.894;2023-09-08T08:33:30;20.90;74.40
12819;DHT22;6474;53.474;9.894;2023-09-08T08:36:00;20.90;74.40
12819;DHT22;6474;53.474;9.894;2023-09-08T08:38:28;21.00;74.40
12819;DHT22;6474;53.474;9.894;2023-09-08T08:41:02;21.10;74.40
12819;DHT22;6474;53.474;9.894;2023-09-08T08:43:31;21.10;74.40
12819;DHT22;6474;53.474;9.894;2023-09-08T08:46:01;21.20;74.40
12819;DHT22;6474;53.474;9.894;2023-09-08T08:48:31;21.30;74.50
12819;DHT22;6474;53.474;9.894;2023-09-08T08:51:01;21.30;74.50
12819;DHT22;6474;53.474;9.894;2023-09-08T08:53:31;21.40;74.50
12819;DHT22;6474;53.474;9.894;2023-09-08T08:55:59;21.40;74.40
12819;DHT22;6474;53.474;9.894;2023-09-08T08:58:28;21.50;74.50
12819;DHT22;6474;53.474;9.894;2023-09-08T09:00:57;21.60;74.50
12819;DHT22;6474;53.474;9.894;2023-09-08T09:03:27;21.60;74.40
12819;DHT22;6474;53.474;9.894;2023-09-08T09:05:58;21.70;74.50
12819;DHT22;6474;53.474;9.894;2023-09-08T09:08:28;21.70;74.40
12819;DHT22;6474;53.474;9.894;2023-09-08T09:10:57;21.80;74.40
12819;DHT22;6474;53.474;9.894;2023-09-08T09:13:25;21.90;74.40
12819;DHT22;6474;53.474;9.894;2023-09-08T09:15:58;22.00;74.30
12819;DHT22;6474;53.474;9.894;2023-09-08T09:18:27;22.00;74.20
12819;DHT22;6474;53.474;9.894;2023-09-08T09:20:58;22.10;74.30
12819;DHT22;6474;53.474;9.894;2023-09-08T09:23:29;22.20;74.40
12819;DHT22;6474;53.474;9.894;2023-09-08T09:25:57;22.30;74.60
12819;DHT22;6474;53.474;9.894;2023-09-08T09:28:28;22.40;74.60
12819;DHT22;6474;53.474;9.894;2023-09-08T09:30:57;22.40;74.60
12819;DHT22;6474;53.474;9.894;2023-09-08T09:33:26;22.50;74.60
12819;DHT22;6474;53.474;9.894;2023-09-08T09:35:55;22.60;74.50
12819;DHT22;6474;53.474;9.894;2023-09-08T09:38:27;22.70;74.50
12819;DHT22;6474;53.474;9.894;2023-09-08T09:40:56;22.80;74.50
12819;DHT22;6474;53.474;9.894;2023-09-08T09:43:27;22.80;74.40
12819;DHT22;6474;53.474;9.894;2023-09-08T09:45:56;23.00;74.60
12819;DHT22;6474;53.474;9.894;2023-09-08T09:48:24;23.00;74.50
12819;DHT22;6474;53.474;9.894;2023-09-08T09:50:52;23.10;74.50
12819;DHT22;6474;53.474;9.894;2023-09-08T09:53:20;23.20;74.50
12819;DHT22;6474;53.474;9.894;2023-09-08T09:55:50;23.20;74.30
12819;DHT22;6474;53.474;9.894;2023-09-08T09:58:18;23.40;74.40
12819;DHT22;6474;53.474;9.894;2023-09-08T10:00:47;23.40;74.30
12819;DHT22;6474;53.474;9.894;2023-09-08T10:03:17;23.50;74.40
12819;DHT22;6474;53.474;9.894;2023-09-08T10:05:47;23.60;74.40
12819;DHT22;6474;53.474;9.894;2023-09-08T10:08:16;23.70;74.30
12819;DHT22;6474;53.474;9.894;2023-09-08T10:10:45;23.70;74.20
12819;DHT22;6474;53.474;9.894;2023-09-08T10:13:24;23.80;74.10
12819;DHT22;6474;53.474;9.894;2023-09-08T10:15:56;24.00;74.20
12819;DHT22;6474;53.474;9.894;2023-09-08T10:18:26;24.00;74.10
12819;DHT22;6474;53.474;9.894;2023-09-08T10:21:00;24.20;74.10
12819;DHT22;6474;53.474;9.894;2023-09-08T10:23:35;24.20;74.00
12819;DHT22;6474;53.474;9.894;2023-09-08T10:26:09;24.30;74.00
12819;DHT22;6474;53.474;9.894;2023-09-08T10:28:39;24.40;74.00
12819;DHT22;6474;53.474;9.894;2023-09-08T10:31:08;24.50;74.00
12819;DHT22;6474;53.474;9.894;2023-09-08T10:33:40;24.50;73.90
12819;DHT22;6474;53.474;9.894;2023-09-08T10:36:08;24.60;73.90
12819;DHT22;6474;53.474;9.894;2023-09-08T10:38:37;24.70;73.90
12819;DHT22;6474;53.474;9.894;2023-09-08T10:41:28;24.80;73.80
12819;DHT22;6474;53.474;9.894;2023-09-08T10:44:04;24.90;73.70
12819;DHT22;6474;53.474;9.894;2023-09-08T10:46:37;25.00;73.80
12819;DHT22;6474;53.474;9.894;2023-09-08T10:49:06;25.10;73.90
12819;DHT22;6474;53.474;9.894;2023-09-08T10:51:35;25.20;73.70
12819;DHT22;6474;53.474;9.894;2023-09-08T10:54:06;25.30;73.50
12819;DHT22;6474;53.474;9.894;2023-09-08T10:56:58;25.30;73.40
12819;DHT22;6474;53.474;9.894;2023-09-08T10:59:38;25.40;73.30
12819;DHT22;6474;53.474;9.894;2023-09-08T11:02:06;25.50;73.30
12819;DHT22;6474;53.474;9.894;2023-09-08T11:04:34;25.60;73.30
12819;DHT22;6474;53.474;9.894;2023-09-08T11:07:04;25.60;73.20
12819;DHT22;6474;53.474;9.894;2023-09-08T11:09:35;25.70;73.20
12819;DHT22;6474;53.474;9.894;2023-09-08T11:12:05;25.70;73.10
12819;DHT22;6474;53.474;9.894;2023-09-08T11:14:36;25.80;73.00
12819;DHT22;6474;53.474;9.894;2023-09-08T11:17:04;25.80;73.00
12819;DHT22;6474;53.474;9.894;2023-09-08T11:19:48;25.90;73.00
12819;DHT22;6474;53.474;9.894;2023-09-08T11:22:17;25.90;72.90
12819;DHT22;6474;53.474;9.894;2023-09-08T11:24:46;26.00;73.00
12819;DHT22;6474;53.474;9.894;2023-09-08T11:27:14;26.00;72.80
12819;DHT22;6474;53.474;9.894;2023-09-08T11:29:44;26.10;72.90
12819;DHT22;6474;53.474;9.894;2023-09-08T11:32:12;26.20;73.00
12819;DHT22;6474;53.474;9.894;2023-09-08T11:34:40;26.20;72.90
12819;DHT22;6474;53.474;9.894;2023-09-08T11:37:09;26.30;73.00
12819;DHT22;6474;53.474;9.894;2023-09-08T11:39:40;26.30;72.70
12819;DHT22;6474;53.474;9.894;2023-09-08T11:42:10;26.40;72.70
12819;DHT22;6474;53.474;9.894;2023-09-08T11:44:43;26.50;72.70
12819;DHT22;6474;53.474;9.894;2023-09-08T11:47:12;26.50;72.60
12819;DHT22;6474;53.474;9.894;2023-09-08T11:49:42;26.60;72.60
12819;DHT22;6474;53.474;9.894;2023-09-08T11:52:12;26.70;72.50
12819;DHT22;6474;53.474;9.894;2023-09-08T11:54:41;26.70;72.40
12819;DHT22;6474;53.474;9.894;2023-09-08T11:57:30;26.80;72.30
12819;DHT22;6474;53.474;9.894;2023-09-08T12:00:00;26.80;72.20
12819;DHT22;6474;53.474;9.894;2023-09-08T12:02:34;26.80;72.20
12819;DHT22;6474;53.474;9.894;2023-09-08T12:05:05;27.00;72.20
12819;DHT22;6474;53.474;9.894;2023-09-08T12:07:33;27.00;72.10
12819;DHT22;6474;53.474;9.894;2023-09-08T12:10:07;27.00;72.00
12819;DHT22;6474;53.474;9.894;2023-09-08T12:12:42;27.00;71.90
12819;DHT22;6474;53.474;9.894;2023-09-08T12:15:14;27.00;71.90
12819;DHT22;6474;53.474;9.894;2023-09-08T12:17:57;27.10;71.90
12819;DHT22;6474;53.474;9.894;2023-09-08T12:20:26;27.20;71.90
12819;DHT22;6474;53.474;9.894;2023-09-08T12:22:58;27.10;71.70
12819;DHT22;6474;53.474;9.894;2023-09-08T12:25:27;27.20;71.80
12819;DHT22;6474;53.474;9.894;2023-09-08T12:27:58;27.30;71.70
12819;DHT22;6474;53.474;9.894;2023-09-08T12:30:31;27.30;71.60
12819;DHT22;6474;53.474;9.894;2023-09-08T12:33:01;27.30;71.50
12819;DHT22;6474;53.474;9.894;2023-09-08T12:35:30;27.40;71.50
12819;DHT22;6474;53.474;9.894;2023-09-08T12:38:00;27.40;71.50
12819;DHT22;6474;53.474;9.894;2023-09-08T12:40:29;27.40;71.50
12819;DHT22;6474;53.474;9.894;2023-09-08T12:42:57;27.40;71.50
12819;DHT22;6474;53.474;9.894;2023-09-08T12:45:45;27.50;71.50
12819;DHT22;6474;53.474;9.894;2023-09-08T12:48:13;27.50;71.50
12819;DHT22;6474;53.474;9.894;2023-09-08T12:50:41;27.50;71.50
12819;DHT22;6474;53.474;9.894;2023-09-08T12:53:09;27.50;71.50
12819;DHT22;6474;53.474;9.894;2023-09-08T12:55:37;27.50;71.40
12819;DHT22;6474;53.474;9.894;2023-09-08T12:58:05;27.50;71.30
12819;DHT22;6474;53.474;9.894;2023-09-08T13:00:32;27.60;71.50
12819;DHT22;6474;53.474;9.894;2023-09-08T13:03:02;27.60;72.20
12819;DHT22;6474;53.474;9.894;2023-09-08T13:05:30;27.60;71.30
12819;DHT22;6474;53.474;9.894;2023-09-08T13:07:59;27.60;71.30
12819;DHT22;6474;53.474;9.894;2023-09-08T13:10:27;27.70;71.40
12819;DHT22;6474;53.474;9.894;2023-09-08T13:12:55;27.70;71.40
12819;DHT22;6474;53.474;9.894;2023-09-08T13:15:23;27.70;71.30
12819;DHT22;6474;53.474;9.894;2023-09-08T13:17:51;27.70;71.30
12819;DHT22;6474;53.474;9.894;2023-09-08T13:20:20;27.80;71.20
12819;DHT22;6474;53.474;9.894;2023-09-08T13:22:48;27.80;71.10
12819;DHT22;6474;53.474;9.894;2023-09-08T13:25:16;27.80;71.00
12819;DHT22;6474;53.474;9.894;2023-09-08T13:27:44;27.90;71.80
12819;DHT22;6474;53.474;9.894;2023-09-08T13:30:15;27.90;71.00
12819;DHT22;6474;53.474;9.894;2023-09-08T13:32:44;27.80;70.90
12819;DHT22;6474;53.474;9.894;2023-09-08T13:35:12;27.90;70.90
12819;DHT22;6474;53.474;9.894;2023-09-08T13:37:41;27.90;70.90
12819;DHT22;6474;53.474;9.894;2023-09-08T13:40:10;27.90;70.80
12819;DHT22;6474;53.474;9.894;2023-09-08T13:42:39;27.90;70.70
12819;DHT22;6474;53.474;9.894;2023-09-08T13:45:08;27.90;70.70
12819;DHT22;6474;53.474;9.894;2023-09-08T13:47:36;27.90;70.70
12819;DHT22;6474;53.474;9.894;2023-09-08T13:50:07;27.90;70.60
12819;DHT22;6474;53.474;9.894;2023-09-08T13:52:36;28.00;70.60
12819;DHT22;6474;53.474;9.894;2023-09-08T13:55:11;28.00;70.60
12819;DHT22;6474;53.474;9.894;2023-09-08T13:57:42;28.00;70.60
12819;DHT22;6474;53.474;9.894;2023-09-08T14:00:15;28.00;70.60
12819;DHT22;6474;53.474;9.894;2023-09-08T14:02:49;28.00;70.60
12819;DHT22;6474;53.474;9.894;2023-09-08T14:05:23;28.10;70.60
12819;DHT22;6474;53.474;9.894;2023-09-08T14:07:56;28.10;70.50
12819;DHT22;6474;53.474;9.894;2023-09-08T14:10:29;28.10;70.50
12819;DHT22;6474;53.474;9.894;2023-09-08T14:13:03;28.10;70.40
12819;DHT22;6474;53.474;9.894;2023-09-08T14:15:31;28.10;70.40
12819;DHT22;6474;53.474;9.894;2023-09-08T14:17:59;28.10;70.40
12819;DHT22;6474;53.474;9.894;2023-09-08T14:20:27;28.10;70.40
12819;DHT22;6474;53.474;9.894;2023-09-08T14:22:55;28.10;70.40
12819;DHT22;6474;53.474;9.894;2023-09-08T14:25:23;28.00;70.20
12819;DHT22;6474;53.474;9.894;2023-09-08T14:27:52;28.10;70.20
12819;DHT22;6474;53.474;9.894;2023-09-08T14:30:20;28.10;70.10
12819;DHT22;6474;53.474;9.894;2023-09-08T14:32:48;28.10;70.00
12819;DHT22;6474;53.474;9.894;2023-09-08T14:35:16;28.00;69.70
12819;DHT22;6474;53.474;9.894;2023-09-08T14:37:46;28.00;69.90
12819;DHT22;6474;53.474;9.894;2023-09-08T14:40:14;28.00;70.00
12819;DHT22;6474;53.474;9.894;2023-09-08T14:42:42;28.00;70.10
12819;DHT22;6474;53.474;9.894;2023-09-08T14:45:12;28.00;70.00
12819;DHT22;6474;53.474;9.894;2023-09-08T14:47:40;27.90;70.10
12819;DHT22;6474;53.474;9.894;2023-09-08T14:50:08;27.80;70.00
12819;DHT22;6474;53.474;9.894;2023-09-08T14:52:36;27.80;70.10
12819;DHT22;6474;53.474;9.894;2023-09-08T14:55:07;27.80;70.20
12819;DHT22;6474;53.474;9.894;2023-09-08T14:57:35;27.70;70.20
12819;DHT22;6474;53.474;9.894;2023-09-08T15:00:04;27.70;70.30
12819;DHT22;6474;53.474;9.894;2023-09-08T15:02:36;27.60;70.40
12819;DHT22;6474;53.474;9.894;2023-09-08T15:05:04;27.60;70.40
12819;DHT22;6474;53.474;9.894;2023-09-08T15:07:32;27.60;70.40
12819;DHT22;6474;53.474;9.894;2023-09-08T15:10:00;27.50;70.40
12819;DHT22;6474;53.474;9.894;2023-09-08T15:12:29;27.50;70.50
12819;DHT22;6474;53.474;9.894;2023-09-08T15:14:56;27.40;70.40
12819;DHT22;6474;53.474;9.894;2023-09-08T15:17:24;27.30;70.40
12819;DHT22;6474;53.474;9.894;2023-09-08T15:19:53;27.40;70.50
12819;DHT22;6474;53.474;9.894;2023-09-08T15:22:21;27.30;70.50
12819;DHT22;6474;53.474;9.894;2023-09-08T15:24:49;27.20;70.40
12819;DHT22;6474;53.474;9.894;2023-09-08T15:27:17;27.20;70.50
12819;DHT22;6474;53.474;9.894;2023-09-08T15:29:45;27.10;70.40
12819;DHT22;6474;53.474;9.894;2023-09-08T15:32:13;27.10;70.40
12819;DHT22;6474;53.474;9.894;2023-09-08T15:34:41;27.10;70.40
12819;DHT22;6474;53.474;9.894;2023-09-08T15:37:11;27.10;70.40
12819;DHT22;6474;53.474;9.894;2023-09-08T15:39:39;27.10;70.40
12819;DHT22;6474;53.474;9.894;2023-09-08T15:42:07;27.10;71.10
12819;DHT22;6474;53.474;9.894;2023-09-08T15:44:35;27.00;70.30
12819;DHT22;6474;53.474;9.894;2023-09-08T15:47:03;27.00;70.40
12819;DHT22;6474;53.474;9.894;2023-09-08T15:49:31;26.90;70.40
12819;DHT22;6474;53.474;9.894;2023-09-08T15:51:58;26.90;70.40
12819;DHT22;6474;53.474;9.894;2023-09-08T15:54:43;26.90;70.40
12819;DHT22;6474;53.474;9.894;2023-09-08T15:57:11;26.80;70.30